Jewel Of Nippon — 3EZR9 — position and weather

sailwx.info

Track history (hours):
 
Tides and Currents Weather Stations Pressure Air Temp Water Temp Dewpoint Dewpoint Depression Visibility Wind Speed Wind Dir Waves Ship Positions

Jewel Of Nippon

Last reported at 2017-Nov-06 20:00 UTC. Time now 2017-Nov-22 10:53 UTC.
Position N 30°58' E 122°36'.
Warning: this ship's position is 15 days out of date.

Length 190 m; draft 6.7 m.

Type: Cargo ship. MMSI: 357478000.

Date/timePositionNaut miles runAvg speedWind from/ knotsBaromVisibWave heightAir tempDewpointWater temp
2017-Nov-06 20:00N 30°58' E 122°36'  
2017-Oct-30 21:18N 32°00' E 120°44'10 8.2
2017-Oct-30 20:07N 31°55' E 120°53'1 5.3
2017-Oct-30 19:59N 31°54' E 120°53'12 7.5
2017-Oct-30 18:26N 31°46' E 121°03'4 8.7
2017-Oct-30 18:00N 31°44' E 121°07'5 9.0
2017-Oct-30 17:30N 31°41' E 121°11'4 9.1
2017-Oct-30 17:00N 31°38' E 121°15'5 9.6
2017-Oct-30 16:30N 31°34' E 121°19'5 9.7
2017-Oct-30 16:00N 31°31' E 121°23'5 9.9
2017-Oct-30 15:30N 31°28' E 121°27'3 6.7
2017-Oct-30 15:00N 31°26' E 121°30'4 8.1
2017-Oct-30 14:30N 31°24' E 121°34'1010.0
2017-Oct-30 13:30N 31°19' E 121°44'510.2
2017-Oct-30 13:00N 31°17' E 121°50'611.0
2017-Oct-30 12:30N 31°15' E 121°56'510.6
2017-Oct-30 12:00N 31°14' E 122°02'5 9.6
2017-Oct-30 11:30N 31°13' E 122°08'7 9.7
2017-Oct-30 10:49N 31°09' E 122°14'410.5
2017-Oct-30 10:29N 31°07' E 122°17'4 7.9
2017-Oct-30 10:00N 31°06' E 122°22'3 6.0
2017-Oct-30 09:30N 31°07' E 122°25'9 4.6
2017-Oct-30 07:30N 31°14' E 122°32'  
Track history (hours):
 
Tides and Currents Weather Stations Pressure Air Temp Water Temp Dewpoint Dewpoint Depression Visibility Wind Speed Wind Dir Waves Ship Positions

Jewel Of Nippon

Last reported at 2017-Nov-06 20:00 UTC. Time now 2017-Nov-22 10:53 UTC.
Position N 30°58' E 122°36'.
Warning: this ship's position is 15 days out of date.

Length 190 m; draft 6.7 m.

Type: Cargo ship. MMSI: 357478000.

Date/timePositionNaut miles runAvg speedWind from/ knotsBaromVisibWave heightAir tempDewpointWater temp
2017-Nov-06 20:00N 30°58' E 122°36'  
2017-Oct-30 21:18N 32°00' E 120°44'10 8.2
2017-Oct-30 20:07N 31°55' E 120°53'1 5.3
2017-Oct-30 19:59N 31°54' E 120°53'12 7.5
2017-Oct-30 18:26N 31°46' E 121°03'4 8.7
2017-Oct-30 18:00N 31°44' E 121°07'5 9.0
2017-Oct-30 17:30N 31°41' E 121°11'4 9.1
2017-Oct-30 17:00N 31°38' E 121°15'5 9.6
2017-Oct-30 16:30N 31°34' E 121°19'5 9.7
2017-Oct-30 16:00N 31°31' E 121°23'5 9.9
2017-Oct-30 15:30N 31°28' E 121°27'3 6.7
2017-Oct-30 15:00N 31°26' E 121°30'4 8.1
2017-Oct-30 14:30N 31°24' E 121°34'1010.0
2017-Oct-30 13:30N 31°19' E 121°44'510.2
2017-Oct-30 13:00N 31°17' E 121°50'611.0
2017-Oct-30 12:30N 31°15' E 121°56'510.6
2017-Oct-30 12:00N 31°14' E 122°02'5 9.6
2017-Oct-30 11:30N 31°13' E 122°08'7 9.7
2017-Oct-30 10:49N 31°09' E 122°14'410.5
2017-Oct-30 10:29N 31°07' E 122°17'4 7.9
2017-Oct-30 10:00N 31°06' E 122°22'3 6.0
2017-Oct-30 09:30N 31°07' E 122°25'9 4.6
2017-Oct-30 07:30N 31°14' E 122°32'  

Dump ship's entire track history